sensor_id;sensor_type;location;lat;lon;timestamp;P1;durP1;ratioP1;P2;durP2;ratioP2
13959;SDS011;7052;51.050;3.716;2023-07-09T00:02:23;11.38;;;8.52;;
13959;SDS011;7052;51.050;3.716;2023-07-09T00:04:51;11.77;;;8.73;;
13959;SDS011;7052;51.050;3.716;2023-07-09T00:07:21;10.63;;;8.25;;
13959;SDS011;7052;51.050;3.716;2023-07-09T00:09:50;10.35;;;8.60;;
13959;SDS011;7052;51.050;3.716;2023-07-09T00:12:19;9.85;;;8.55;;
13959;SDS011;7052;51.050;3.716;2023-07-09T00:14:46;8.93;;;7.93;;
13959;SDS011;7052;51.050;3.716;2023-07-09T00:17:17;10.40;;;7.97;;
13959;SDS011;7052;51.050;3.716;2023-07-09T00:19:47;9.15;;;7.82;;
13959;SDS011;7052;51.050;3.716;2023-07-09T00:22:14;10.73;;;8.00;;
13959;SDS011;7052;51.050;3.716;2023-07-09T00:24:42;13.13;;;8.27;;
13959;SDS011;7052;51.050;3.716;2023-07-09T00:27:11;16.95;;;12.88;;
13959;SDS011;7052;51.050;3.716;2023-07-09T00:29:41;15.20;;;13.25;;
13959;SDS011;7052;51.050;3.716;2023-07-09T00:32:12;16.55;;;13.35;;
13959;SDS011;7052;51.050;3.716;2023-07-09T00:34:41;21.05;;;17.50;;
13959;SDS011;7052;51.050;3.716;2023-07-09T00:37:14;18.38;;;16.35;;
13959;SDS011;7052;51.050;3.716;2023-07-09T00:39:43;20.58;;;17.80;;
13959;SDS011;7052;51.050;3.716;2023-07-09T00:42:11;20.02;;;17.90;;
13959;SDS011;7052;51.050;3.716;2023-07-09T00:44:43;21.48;;;17.83;;
13959;SDS011;7052;51.050;3.716;2023-07-09T00:47:22;22.60;;;18.67;;
13959;SDS011;7052;51.050;3.716;2023-07-09T00:50:11;25.85;;;20.15;;
13959;SDS011;7052;51.050;3.716;2023-07-09T00:52:46;23.23;;;20.77;;
13959;SDS011;7052;51.050;3.716;2023-07-09T00:55:19;25.38;;;21.35;;
13959;SDS011;7052;51.050;3.716;2023-07-09T00:57:51;25.80;;;21.85;;
13959;SDS011;7052;51.050;3.716;2023-07-09T01:00:25;24.63;;;21.55;;
13959;SDS011;7052;51.050;3.716;2023-07-09T01:02:55;25.20;;;22.27;;
13959;SDS011;7052;51.050;3.716;2023-07-09T01:05:24;26.08;;;23.27;;
13959;SDS011;7052;51.050;3.716;2023-07-09T01:07:52;33.47;;;25.15;;
13959;SDS011;7052;51.050;3.716;2023-07-09T01:10:19;30.08;;;26.40;;
13959;SDS011;7052;51.050;3.716;2023-07-09T01:12:46;29.15;;;25.92;;
13959;SDS011;7052;51.050;3.716;2023-07-09T01:15:16;32.90;;;29.50;;
13959;SDS011;7052;51.050;3.716;2023-07-09T01:17:44;36.80;;;31.95;;
13959;SDS011;7052;51.050;3.716;2023-07-09T01:20:15;39.35;;;33.13;;
13959;SDS011;7052;51.050;3.716;2023-07-09T01:22:49;37.00;;;33.28;;
13959;SDS011;7052;51.050;3.716;2023-07-09T01:25:22;37.45;;;33.50;;
13959;SDS011;7052;51.050;3.716;2023-07-09T01:27:49;41.00;;;35.47;;
13959;SDS011;7052;51.050;3.716;2023-07-09T01:30:18;40.45;;;36.30;;
13959;SDS011;7052;51.050;3.716;2023-07-09T01:32:49;43.92;;;37.30;;
13959;SDS011;7052;51.050;3.716;2023-07-09T01:35:21;47.45;;;38.92;;
13959;SDS011;7052;51.050;3.716;2023-07-09T01:37:50;49.10;;;40.10;;
13959;SDS011;7052;51.050;3.716;2023-07-09T01:40:18;44.38;;;39.65;;
13959;SDS011;7052;51.050;3.716;2023-07-09T01:42:46;54.40;;;48.83;;
13959;SDS011;7052;51.050;3.716;2023-07-09T01:45:13;59.67;;;53.45;;
13959;SDS011;7052;51.050;3.716;2023-07-09T01:47:42;68.00;;;61.20;;
13959;SDS011;7052;51.050;3.716;2023-07-09T01:50:10;72.95;;;65.60;;
13959;SDS011;7052;51.050;3.716;2023-07-09T01:52:40;75.05;;;67.28;;
13959;SDS011;7052;51.050;3.716;2023-07-09T01:55:12;79.55;;;71.75;;
13959;SDS011;7052;51.050;3.716;2023-07-09T01:57:43;81.38;;;73.40;;
13959;SDS011;7052;51.050;3.716;2023-07-09T02:00:17;81.30;;;73.15;;
13959;SDS011;7052;51.050;3.716;2023-07-09T02:02:47;81.70;;;73.80;;
13959;SDS011;7052;51.050;3.716;2023-07-09T02:05:16;85.18;;;76.72;;
13959;SDS011;7052;51.050;3.716;2023-07-09T02:07:44;83.43;;;75.00;;
13959;SDS011;7052;51.050;3.716;2023-07-09T02:10:14;84.05;;;75.95;;
13959;SDS011;7052;51.050;3.716;2023-07-09T02:12:43;84.13;;;75.85;;
13959;SDS011;7052;51.050;3.716;2023-07-09T02:15:10;87.32;;;78.63;;
13959;SDS011;7052;51.050;3.716;2023-07-09T02:17:37;84.93;;;76.65;;
13959;SDS011;7052;51.050;3.716;2023-07-09T02:20:06;84.22;;;75.80;;
13959;SDS011;7052;51.050;3.716;2023-07-09T02:22:35;83.55;;;75.38;;
13959;SDS011;7052;51.050;3.716;2023-07-09T02:25:03;83.18;;;74.65;;
13959;SDS011;7052;51.050;3.716;2023-07-09T02:27:33;87.63;;;79.15;;
13959;SDS011;7052;51.050;3.716;2023-07-09T02:30:01;90.05;;;81.25;;
13959;SDS011;7052;51.050;3.716;2023-07-09T02:32:29;90.78;;;81.75;;
13959;SDS011;7052;51.050;3.716;2023-07-09T02:34:56;93.10;;;83.95;;
13959;SDS011;7052;51.050;3.716;2023-07-09T02:37:24;96.45;;;87.30;;
13959;SDS011;7052;51.050;3.716;2023-07-09T02:39:52;94.68;;;85.55;;
13959;SDS011;7052;51.050;3.716;2023-07-09T02:42:20;99.97;;;90.18;;
13959;SDS011;7052;51.050;3.716;2023-07-09T02:44:50;101.72;;;91.60;;
13959;SDS011;7052;51.050;3.716;2023-07-09T02:47:18;100.40;;;90.57;;
13959;SDS011;7052;51.050;3.716;2023-07-09T02:49:47;100.88;;;90.68;;
13959;SDS011;7052;51.050;3.716;2023-07-09T02:52:14;96.50;;;86.78;;
13959;SDS011;7052;51.050;3.716;2023-07-09T02:54:41;97.35;;;87.47;;
13959;SDS011;7052;51.050;3.716;2023-07-09T02:57:08;99.80;;;89.85;;
13959;SDS011;7052;51.050;3.716;2023-07-09T02:59:36;95.93;;;86.07;;
13959;SDS011;7052;51.050;3.716;2023-07-09T03:02:04;99.28;;;89.05;;
13959;SDS011;7052;51.050;3.716;2023-07-09T03:04:31;99.63;;;89.60;;
13959;SDS011;7052;51.050;3.716;2023-07-09T03:06:59;96.97;;;87.18;;
13959;SDS011;7052;51.050;3.716;2023-07-09T03:09:26;98.07;;;88.32;;
13959;SDS011;7052;51.050;3.716;2023-07-09T03:11:54;97.20;;;87.40;;
13959;SDS011;7052;51.050;3.716;2023-07-09T03:14:24;92.40;;;83.15;;
13959;SDS011;7052;51.050;3.716;2023-07-09T03:16:53;94.38;;;85.03;;
13959;SDS011;7052;51.050;3.716;2023-07-09T03:19:22;91.82;;;82.90;;
13959;SDS011;7052;51.050;3.716;2023-07-09T03:21:49;92.38;;;83.43;;
13959;SDS011;7052;51.050;3.716;2023-07-09T03:24:16;89.00;;;80.22;;
13959;SDS011;7052;51.050;3.716;2023-07-09T03:26:45;87.47;;;78.50;;
13959;SDS011;7052;51.050;3.716;2023-07-09T03:29:12;86.57;;;77.75;;
13959;SDS011;7052;51.050;3.716;2023-07-09T03:31:39;89.70;;;80.80;;
13959;SDS011;7052;51.050;3.716;2023-07-09T03:34:06;89.03;;;80.10;;
13959;SDS011;7052;51.050;3.716;2023-07-09T03:36:35;93.97;;;84.80;;
13959;SDS011;7052;51.050;3.716;2023-07-09T03:39:03;92.55;;;83.03;;
13959;SDS011;7052;51.050;3.716;2023-07-09T03:41:31;96.88;;;86.88;;
13959;SDS011;7052;51.050;3.716;2023-07-09T03:43:57;96.50;;;86.88;;
13959;SDS011;7052;51.050;3.716;2023-07-09T03:46:24;100.65;;;90.80;;
13959;SDS011;7052;51.050;3.716;2023-07-09T03:48:53;102.20;;;91.93;;
13959;SDS011;7052;51.050;3.716;2023-07-09T03:51:20;105.88;;;95.25;;
13959;SDS011;7052;51.050;3.716;2023-07-09T03:53:49;103.63;;;93.15;;
13959;SDS011;7052;51.050;3.716;2023-07-09T03:56:16;110.47;;;99.28;;
13959;SDS011;7052;51.050;3.716;2023-07-09T03:58:42;111.30;;;99.47;;
13959;SDS011;7052;51.050;3.716;2023-07-09T04:01:10;111.65;;;100.32;;
13959;SDS011;7052;51.050;3.716;2023-07-09T04:03:37;115.93;;;104.00;;
13959;SDS011;7052;51.050;3.716;2023-07-09T04:06:04;112.18;;;100.40;;
13959;SDS011;7052;51.050;3.716;2023-07-09T04:08:31;111.28;;;99.38;;
13959;SDS011;7052;51.050;3.716;2023-07-09T04:11:00;119.20;;;106.68;;
13959;SDS011;7052;51.050;3.716;2023-07-09T04:13:28;116.47;;;103.45;;
13959;SDS011;7052;51.050;3.716;2023-07-09T04:15:55;117.85;;;105.65;;
13959;SDS011;7052;51.050;3.716;2023-07-09T04:18:22;118.55;;;106.07;;
13959;SDS011;7052;51.050;3.716;2023-07-09T04:20:51;126.95;;;102.88;;
13959;SDS011;7052;51.050;3.716;2023-07-09T04:23:18;110.55;;;99.05;;
13959;SDS011;7052;51.050;3.716;2023-07-09T04:25:46;114.22;;;102.53;;
13959;SDS011;7052;51.050;3.716;2023-07-09T04:28:15;112.93;;;101.22;;
13959;SDS011;7052;51.050;3.716;2023-07-09T04:30:46;112.00;;;100.75;;
13959;SDS011;7052;51.050;3.716;2023-07-09T04:33:14;109.28;;;98.15;;
13959;SDS011;7052;51.050;3.716;2023-07-09T04:35:43;105.10;;;94.18;;
13959;SDS011;7052;51.050;3.716;2023-07-09T04:38:10;108.15;;;95.70;;
13959;SDS011;7052;51.050;3.716;2023-07-09T04:40:37;103.38;;;92.07;;
13959;SDS011;7052;51.050;3.716;2023-07-09T04:43:04;100.60;;;90.05;;
13959;SDS011;7052;51.050;3.716;2023-07-09T04:45:33;102.38;;;91.40;;
13959;SDS011;7052;51.050;3.716;2023-07-09T04:48:00;99.05;;;88.57;;
13959;SDS011;7052;51.050;3.716;2023-07-09T04:50:27;99.55;;;87.72;;
13959;SDS011;7052;51.050;3.716;2023-07-09T04:52:56;97.57;;;87.05;;
13959;SDS011;7052;51.050;3.716;2023-07-09T04:55:23;95.38;;;85.38;;
13959;SDS011;7052;51.050;3.716;2023-07-09T04:57:51;94.57;;;84.35;;
13959;SDS011;7052;51.050;3.716;2023-07-09T05:00:18;93.18;;;81.82;;
13959;SDS011;7052;51.050;3.716;2023-07-09T05:02:46;90.18;;;80.57;;
13959;SDS011;7052;51.050;3.716;2023-07-09T05:05:14;96.40;;;81.70;;
13959;SDS011;7052;51.050;3.716;2023-07-09T05:07:41;88.03;;;78.80;;
13959;SDS011;7052;51.050;3.716;2023-07-09T05:10:09;90.40;;;80.80;;
13959;SDS011;7052;51.050;3.716;2023-07-09T05:12:46;86.32;;;77.05;;
13959;SDS011;7052;51.050;3.716;2023-07-09T05:15:15;82.88;;;74.10;;
13959;SDS011;7052;51.050;3.716;2023-07-09T05:17:42;84.47;;;75.35;;
13959;SDS011;7052;51.050;3.716;2023-07-09T05:20:13;78.13;;;69.82;;
13959;SDS011;7052;51.050;3.716;2023-07-09T05:22:40;69.80;;;61.63;;
13959;SDS011;7052;51.050;3.716;2023-07-09T05:25:08;72.60;;;64.78;;
13959;SDS011;7052;51.050;3.716;2023-07-09T05:27:35;75.68;;;65.80;;
13959;SDS011;7052;51.050;3.716;2023-07-09T05:30:04;77.82;;;63.50;;
13959;SDS011;7052;51.050;3.716;2023-07-09T05:32:32;67.80;;;60.33;;
13959;SDS011;7052;51.050;3.716;2023-07-09T05:34:59;64.00;;;57.10;;
13959;SDS011;7052;51.050;3.716;2023-07-09T05:37:28;65.53;;;57.08;;
13959;SDS011;7052;51.050;3.716;2023-07-09T05:39:55;63.72;;;54.10;;
13959;SDS011;7052;51.050;3.716;2023-07-09T05:42:22;60.65;;;52.72;;
13959;SDS011;7052;51.050;3.716;2023-07-09T05:44:49;53.83;;;47.35;;
13959;SDS011;7052;51.050;3.716;2023-07-09T05:47:17;49.92;;;44.45;;
13959;SDS011;7052;51.050;3.716;2023-07-09T05:49:47;51.75;;;46.05;;
13959;SDS011;7052;51.050;3.716;2023-07-09T05:52:15;50.65;;;45.13;;
13959;SDS011;7052;51.050;3.716;2023-07-09T05:54:45;49.05;;;43.38;;
13959;SDS011;7052;51.050;3.716;2023-07-09T05:57:12;48.28;;;42.13;;
13959;SDS011;7052;51.050;3.716;2023-07-09T05:59:39;46.00;;;41.10;;
13959;SDS011;7052;51.050;3.716;2023-07-09T06:02:07;46.35;;;40.55;;
13959;SDS011;7052;51.050;3.716;2023-07-09T06:04:36;41.92;;;37.33;;
13959;SDS011;7052;51.050;3.716;2023-07-09T06:07:03;41.88;;;35.90;;
13959;SDS011;7052;51.050;3.716;2023-07-09T06:09:32;41.42;;;35.10;;
13959;SDS011;7052;51.050;3.716;2023-07-09T06:12:00;40.40;;;35.85;;
13959;SDS011;7052;51.050;3.716;2023-07-09T06:14:27;39.33;;;34.95;;
13959;SDS011;7052;51.050;3.716;2023-07-09T06:16:54;37.70;;;33.30;;
13959;SDS011;7052;51.050;3.716;2023-07-09T06:19:21;36.85;;;31.00;;
13959;SDS011;7052;51.050;3.716;2023-07-09T06:21:48;32.10;;;28.80;;
13959;SDS011;7052;51.050;3.716;2023-07-09T06:24:15;31.55;;;28.02;;
13959;SDS011;7052;51.050;3.716;2023-07-09T06:26:43;32.08;;;26.83;;
13959;SDS011;7052;51.050;3.716;2023-07-09T06:29:12;29.25;;;26.30;;
13959;SDS011;7052;51.050;3.716;2023-07-09T06:31:39;28.05;;;25.08;;
13959;SDS011;7052;51.050;3.716;2023-07-09T06:34:07;27.70;;;24.25;;
13959;SDS011;7052;51.050;3.716;2023-07-09T06:36:37;26.25;;;23.45;;
13959;SDS011;7052;51.050;3.716;2023-07-09T06:39:04;23.65;;;21.15;;
13959;SDS011;7052;51.050;3.716;2023-07-09T06:41:31;24.65;;;21.98;;
13959;SDS011;7052;51.050;3.716;2023-07-09T06:44:03;24.50;;;20.73;;
13959;SDS011;7052;51.050;3.716;2023-07-09T06:46:32;23.30;;;20.15;;
13959;SDS011;7052;51.050;3.716;2023-07-09T06:49:00;23.25;;;19.48;;
13959;SDS011;7052;51.050;3.716;2023-07-09T06:51:28;23.77;;;18.42;;
13959;SDS011;7052;51.050;3.716;2023-07-09T06:53:55;20.88;;;18.20;;
13959;SDS011;7052;51.050;3.716;2023-07-09T06:56:23;20.00;;;17.45;;
13959;SDS011;7052;51.050;3.716;2023-07-09T06:58:50;21.05;;;16.58;;
13959;SDS011;7052;51.050;3.716;2023-07-09T07:01:17;18.50;;;16.00;;
13959;SDS011;7052;51.050;3.716;2023-07-09T07:03:45;19.60;;;14.82;;
13959;SDS011;7052;51.050;3.716;2023-07-09T07:06:12;17.58;;;13.95;;
13959;SDS011;7052;51.050;3.716;2023-07-09T07:08:39;15.23;;;13.15;;
13959;SDS011;7052;51.050;3.716;2023-07-09T07:11:07;16.90;;;13.18;;
13959;SDS011;7052;51.050;3.716;2023-07-09T07:13:35;14.57;;;11.85;;
13959;SDS011;7052;51.050;3.716;2023-07-09T07:16:03;15.13;;;12.27;;
13959;SDS011;7052;51.050;3.716;2023-07-09T07:18:32;16.92;;;13.20;;
13959;SDS011;7052;51.050;3.716;2023-07-09T07:21:01;17.10;;;13.48;;
13959;SDS011;7052;51.050;3.716;2023-07-09T07:23:28;16.38;;;12.60;;
13959;SDS011;7052;51.050;3.716;2023-07-09T07:25:55;14.80;;;11.82;;
13959;SDS011;7052;51.050;3.716;2023-07-09T07:28:24;16.67;;;13.02;;
13959;SDS011;7052;51.050;3.716;2023-07-09T07:30:59;14.48;;;10.23;;
13959;SDS011;7052;51.050;3.716;2023-07-09T07:33:27;11.55;;;8.88;;
13959;SDS011;7052;51.050;3.716;2023-07-09T07:35:55;11.90;;;8.85;;
13959;SDS011;7052;51.050;3.716;2023-07-09T07:38:24;11.13;;;9.38;;
13959;SDS011;7052;51.050;3.716;2023-07-09T07:40:51;12.52;;;9.63;;
13959;SDS011;7052;51.050;3.716;2023-07-09T07:43:19;13.82;;;9.38;;
13959;SDS011;7052;51.050;3.716;2023-07-09T07:45:47;14.25;;;9.73;;
13959;SDS011;7052;51.050;3.716;2023-07-09T07:48:14;14.00;;;9.65;;
13959;SDS011;7052;51.050;3.716;2023-07-09T07:50:41;12.18;;;8.23;;
13959;SDS011;7052;51.050;3.716;2023-07-09T07:53:11;11.23;;;8.27;;
13959;SDS011;7052;51.050;3.716;2023-07-09T07:55:40;11.27;;;7.97;;
13959;SDS011;7052;51.050;3.716;2023-07-09T07:58:12;11.48;;;8.82;;
13959;SDS011;7052;51.050;3.716;2023-07-09T08:00:40;9.93;;;8.10;;
13959;SDS011;7052;51.050;3.716;2023-07-09T08:03:07;9.43;;;7.22;;
13959;SDS011;7052;51.050;3.716;2023-07-09T08:05:34;11.50;;;7.28;;
13959;SDS011;7052;51.050;3.716;2023-07-09T08:08:01;9.05;;;7.30;;
13959;SDS011;7052;51.050;3.716;2023-07-09T08:10:28;9.15;;;6.75;;
13959;SDS011;7052;51.050;3.716;2023-07-09T08:12:57;8.20;;;5.97;;
13959;SDS011;7052;51.050;3.716;2023-07-09T08:15:24;7.55;;;5.78;;
13959;SDS011;7052;51.050;3.716;2023-07-09T08:17:51;7.70;;;5.50;;
13959;SDS011;7052;51.050;3.716;2023-07-09T08:20:19;7.82;;;5.63;;
13959;SDS011;7052;51.050;3.716;2023-07-09T08:22:46;11.23;;;6.35;;
13959;SDS011;7052;51.050;3.716;2023-07-09T08:25:13;8.00;;;6.20;;
13959;SDS011;7052;51.050;3.716;2023-07-09T08:27:40;8.30;;;5.35;;
13959;SDS011;7052;51.050;3.716;2023-07-09T08:30:09;6.00;;;5.40;;
13959;SDS011;7052;51.050;3.716;2023-07-09T08:32:36;8.05;;;6.18;;
13959;SDS011;7052;51.050;3.716;2023-07-09T08:35:04;7.45;;;5.68;;
13959;SDS011;7052;51.050;3.716;2023-07-09T08:37:31;9.82;;;6.60;;
13959;SDS011;7052;51.050;3.716;2023-07-09T08:39:58;10.10;;;6.25;;
13959;SDS011;7052;51.050;3.716;2023-07-09T08:42:26;8.80;;;6.28;;
13959;SDS011;7052;51.050;3.716;2023-07-09T08:45:00;8.93;;;6.20;;
13959;SDS011;7052;51.050;3.716;2023-07-09T08:47:42;8.50;;;5.88;;
13959;SDS011;7052;51.050;3.716;2023-07-09T08:50:19;7.35;;;5.80;;
13959;SDS011;7052;51.050;3.716;2023-07-09T08:52:50;7.15;;;5.63;;
13959;SDS011;7052;51.050;3.716;2023-07-09T08:55:21;8.45;;;5.70;;
13959;SDS011;7052;51.050;3.716;2023-07-09T08:57:53;12.63;;;5.20;;
13959;SDS011;7052;51.050;3.716;2023-07-09T09:00:27;6.57;;;5.55;;
13959;SDS011;7052;51.050;3.716;2023-07-09T09:02:58;6.05;;;5.45;;
13959;SDS011;7052;51.050;3.716;2023-07-09T09:05:28;8.13;;;5.32;;
13959;SDS011;7052;51.050;3.716;2023-07-09T09:08:02;8.40;;;5.28;;
13959;SDS011;7052;51.050;3.716;2023-07-09T09:10:38;6.82;;;5.68;;
13959;SDS011;7052;51.050;3.716;2023-07-09T09:13:10;8.32;;;5.75;;
13959;SDS011;7052;51.050;3.716;2023-07-09T09:15:40;9.55;;;5.55;;
13959;SDS011;7052;51.050;3.716;2023-07-09T09:18:20;6.95;;;5.38;;
13959;SDS011;7052;51.050;3.716;2023-07-09T09:20:52;8.63;;;5.80;;
13959;SDS011;7052;51.050;3.716;2023-07-09T09:23:36;8.90;;;6.18;;
13959;SDS011;7052;51.050;3.716;2023-07-09T09:26:07;18.45;;;6.55;;
13959;SDS011;7052;51.050;3.716;2023-07-09T09:28:40;8.23;;;5.22;;
13959;SDS011;7052;51.050;3.716;2023-07-09T09:31:09;6.75;;;5.93;;
13959;SDS011;7052;51.050;3.716;2023-07-09T09:33:40;8.98;;;5.07;;
13959;SDS011;7052;51.050;3.716;2023-07-09T09:36:14;8.38;;;5.40;;
13959;SDS011;7052;51.050;3.716;2023-07-09T09:38:43;9.25;;;5.30;;
13959;SDS011;7052;51.050;3.716;2023-07-09T09:41:15;7.38;;;5.55;;
13959;SDS011;7052;51.050;3.716;2023-07-09T09:43:44;6.20;;;4.80;;
13959;SDS011;7052;51.050;3.716;2023-07-09T09:46:18;8.77;;;6.32;;
13959;SDS011;7052;51.050;3.716;2023-07-09T09:48:48;7.45;;;6.65;;
13959;SDS011;7052;51.050;3.716;2023-07-09T09:51:16;14.18;;;6.20;;
13959;SDS011;7052;51.050;3.716;2023-07-09T09:53:45;8.68;;;5.90;;
13959;SDS011;7052;51.050;3.716;2023-07-09T09:56:19;6.93;;;4.80;;
13959;SDS011;7052;51.050;3.716;2023-07-09T09:58:52;6.20;;;5.47;;
13959;SDS011;7052;51.050;3.716;2023-07-09T10:01:25;12.52;;;8.05;;
13959;SDS011;7052;51.050;3.716;2023-07-09T10:03:55;15.18;;;9.52;;
13959;SDS011;7052;51.050;3.716;2023-07-09T10:06:25;10.07;;;7.20;;
13959;SDS011;7052;51.050;3.716;2023-07-09T10:09:02;15.02;;;9.23;;
13959;SDS011;7052;51.050;3.716;2023-07-09T10:11:39;12.70;;;9.48;;
13959;SDS011;7052;51.050;3.716;2023-07-09T10:14:25;16.45;;;12.15;;
13959;SDS011;7052;51.050;3.716;2023-07-09T10:17:03;19.40;;;17.02;;
13959;SDS011;7052;51.050;3.716;2023-07-09T10:19:44;11.10;;;7.82;;
13959;SDS011;7052;51.050;3.716;2023-07-09T10:22:17;7.15;;;5.55;;
13959;SDS011;7052;51.050;3.716;2023-07-09T10:24:56;9.85;;;6.35;;
13959;SDS011;7052;51.050;3.716;2023-07-09T10:27:32;8.73;;;5.55;;
13959;SDS011;7052;51.050;3.716;2023-07-09T10:30:30;6.60;;;5.00;;
13959;SDS011;7052;51.050;3.716;2023-07-09T10:33:09;16.02;;;4.90;;
13959;SDS011;7052;51.050;3.716;2023-07-09T10:35:44;7.20;;;4.32;;
13959;SDS011;7052;51.050;3.716;2023-07-09T10:38:22;7.90;;;4.30;;
13959;SDS011;7052;51.050;3.716;2023-07-09T10:41:09;8.65;;;4.55;;
13959;SDS011;7052;51.050;3.716;2023-07-09T10:43:41;8.60;;;4.65;;
13959;SDS011;7052;51.050;3.716;2023-07-09T10:46:14;5.05;;;4.20;;
13959;SDS011;7052;51.050;3.716;2023-07-09T10:48:46;6.25;;;4.13;;
13959;SDS011;7052;51.050;3.716;2023-07-09T10:51:19;17.50;;;14.25;;
13959;SDS011;7052;51.050;3.716;2023-07-09T10:53:50;7.38;;;4.57;;
13959;SDS011;7052;51.050;3.716;2023-07-09T10:56:24;7.38;;;4.32;;
13959;SDS011;7052;51.050;3.716;2023-07-09T10:58:55;6.18;;;4.60;;
13959;SDS011;7052;51.050;3.716;2023-07-09T11:01:31;11.45;;;5.00;;
13959;SDS011;7052;51.050;3.716;2023-07-09T11:04:11;7.03;;;4.60;;
13959;SDS011;7052;51.050;3.716;2023-07-09T11:06:47;7.97;;;4.97;;
13959;SDS011;7052;51.050;3.716;2023-07-09T11:09:21;7.88;;;4.97;;
13959;SDS011;7052;51.050;3.716;2023-07-09T11:11:53;9.23;;;5.70;;
13959;SDS011;7052;51.050;3.716;2023-07-09T11:14:26;9.68;;;5.63;;
13959;SDS011;7052;51.050;3.716;2023-07-09T11:16:59;13.65;;;5.68;;
13959;SDS011;7052;51.050;3.716;2023-07-09T11:19:30;9.38;;;5.80;;
13959;SDS011;7052;51.050;3.716;2023-07-09T11:21:59;9.35;;;6.25;;
13959;SDS011;7052;51.050;3.716;2023-07-09T11:24:34;8.55;;;7.22;;
13959;SDS011;7052;51.050;3.716;2023-07-09T11:27:19;9.98;;;8.07;;
13959;SDS011;7052;51.050;3.716;2023-07-09T11:29:51;12.10;;;7.97;;
13959;SDS011;7052;51.050;3.716;2023-07-09T11:32:26;11.02;;;9.05;;
13959;SDS011;7052;51.050;3.716;2023-07-09T11:35:05;10.45;;;8.65;;
13959;SDS011;7052;51.050;3.716;2023-07-09T11:37:43;14.50;;;9.82;;
13959;SDS011;7052;51.050;3.716;2023-07-09T11:40:11;18.95;;;9.93;;
13959;SDS011;7052;51.050;3.716;2023-07-09T11:42:46;16.50;;;11.18;;
13959;SDS011;7052;51.050;3.716;2023-07-09T11:45:21;13.57;;;10.70;;
13959;SDS011;7052;51.050;3.716;2023-07-09T11:47:53;14.75;;;11.68;;
13959;SDS011;7052;51.050;3.716;2023-07-09T11:50:31;15.02;;;11.55;;
13959;SDS011;7052;51.050;3.716;2023-07-09T11:53:01;15.32;;;12.07;;
13959;SDS011;7052;51.050;3.716;2023-07-09T11:55:33;15.45;;;12.40;;
13959;SDS011;7052;51.050;3.716;2023-07-09T11:58:08;16.98;;;13.85;;
13959;SDS011;7052;51.050;3.716;2023-07-09T12:00:41;17.63;;;13.48;;
13959;SDS011;7052;51.050;3.716;2023-07-09T12:03:10;19.25;;;13.32;;
13959;SDS011;7052;51.050;3.716;2023-07-09T12:05:43;16.88;;;12.73;;
13959;SDS011;7052;51.050;3.716;2023-07-09T12:08:15;15.95;;;12.10;;
13959;SDS011;7052;51.050;3.716;2023-07-09T12:10:43;17.60;;;12.85;;
13959;SDS011;7052;51.050;3.716;2023-07-09T12:13:11;17.98;;;13.13;;
13959;SDS011;7052;51.050;3.716;2023-07-09T12:15:39;16.23;;;12.90;;
13959;SDS011;7052;51.050;3.716;2023-07-09T12:18:10;20.27;;;12.75;;
13959;SDS011;7052;51.050;3.716;2023-07-09T12:20:39;16.80;;;12.10;;
13959;SDS011;7052;51.050;3.716;2023-07-09T12:23:15;18.73;;;14.00;;
13959;SDS011;7052;51.050;3.716;2023-07-09T12:25:48;18.67;;;14.73;;
13959;SDS011;7052;51.050;3.716;2023-07-09T12:28:16;19.98;;;12.43;;
13959;SDS011;7052;51.050;3.716;2023-07-09T12:30:47;14.95;;;12.23;;
13959;SDS011;7052;51.050;3.716;2023-07-09T12:33:16;16.75;;;11.93;;
13959;SDS011;7052;51.050;3.716;2023-07-09T12:35:45;17.00;;;12.38;;
13959;SDS011;7052;51.050;3.716;2023-07-09T12:38:21;18.02;;;12.30;;
13959;SDS011;7052;51.050;3.716;2023-07-09T12:40:50;15.90;;;12.30;;
13959;SDS011;7052;51.050;3.716;2023-07-09T12:43:21;15.02;;;11.52;;
13959;SDS011;7052;51.050;3.716;2023-07-09T12:45:52;15.80;;;12.48;;
13959;SDS011;7052;51.050;3.716;2023-07-09T12:48:19;16.63;;;13.85;;
13959;SDS011;7052;51.050;3.716;2023-07-09T12:50:50;17.88;;;13.13;;
13959;SDS011;7052;51.050;3.716;2023-07-09T12:53:18;20.85;;;13.52;;
13959;SDS011;7052;51.050;3.716;2023-07-09T12:55:51;18.58;;;13.02;;
13959;SDS011;7052;51.050;3.716;2023-07-09T12:58:23;19.58;;;14.70;;
13959;SDS011;7052;51.050;3.716;2023-07-09T13:00:54;17.02;;;13.95;;
13959;SDS011;7052;51.050;3.716;2023-07-09T13:03:24;18.30;;;13.90;;
13959;SDS011;7052;51.050;3.716;2023-07-09T13:05:57;22.08;;;14.77;;
13959;SDS011;7052;51.050;3.716;2023-07-09T13:08:28;18.00;;;14.10;;
13959;SDS011;7052;51.050;3.716;2023-07-09T13:10:56;20.65;;;14.32;;
13959;SDS011;7052;51.050;3.716;2023-07-09T13:13:27;19.13;;;14.48;;
13959;SDS011;7052;51.050;3.716;2023-07-09T13:15:54;17.10;;;14.60;;
13959;SDS011;7052;51.050;3.716;2023-07-09T13:18:26;17.33;;;14.27;;
13959;SDS011;7052;51.050;3.716;2023-07-09T13:20:56;17.23;;;13.02;;
13959;SDS011;7052;51.050;3.716;2023-07-09T13:23:24;17.67;;;13.95;;
13959;SDS011;7052;51.050;3.716;2023-07-09T13:25:54;21.45;;;14.20;;
13959;SDS011;7052;51.050;3.716;2023-07-09T13:28:24;17.75;;;14.07;;
13959;SDS011;7052;51.050;3.716;2023-07-09T13:30:57;17.02;;;13.80;;
13959;SDS011;7052;51.050;3.716;2023-07-09T13:33:26;17.80;;;14.00;;
13959;SDS011;7052;51.050;3.716;2023-07-09T13:35:53;17.83;;;14.05;;
13959;SDS011;7052;51.050;3.716;2023-07-09T13:38:22;20.73;;;13.82;;
13959;SDS011;7052;51.050;3.716;2023-07-09T13:40:51;18.20;;;14.15;;
13959;SDS011;7052;51.050;3.716;2023-07-09T13:43:26;15.18;;;12.18;;
13959;SDS011;7052;51.050;3.716;2023-07-09T13:45:55;13.00;;;11.32;;
13959;SDS011;7052;51.050;3.716;2023-07-09T13:48:25;15.35;;;10.60;;
13959;SDS011;7052;51.050;3.716;2023-07-09T13:50:54;11.32;;;9.77;;
13959;SDS011;7052;51.050;3.716;2023-07-09T13:53:23;13.38;;;9.25;;
13959;SDS011;7052;51.050;3.716;2023-07-09T13:55:52;11.00;;;8.73;;
13959;SDS011;7052;51.050;3.716;2023-07-09T13:58:23;11.75;;;8.77;;
13959;SDS011;7052;51.050;3.716;2023-07-09T14:00:56;11.23;;;8.02;;
13959;SDS011;7052;51.050;3.716;2023-07-09T14:03:31;11.60;;;8.30;;
13959;SDS011;7052;51.050;3.716;2023-07-09T14:06:00;11.90;;;9.07;;
13959;SDS011;7052;51.050;3.716;2023-07-09T14:08:28;11.63;;;8.80;;
13959;SDS011;7052;51.050;3.716;2023-07-09T14:10:55;10.27;;;8.63;;
13959;SDS011;7052;51.050;3.716;2023-07-09T14:13:25;11.45;;;8.65;;
13959;SDS011;7052;51.050;3.716;2023-07-09T14:15:52;13.75;;;9.30;;
13959;SDS011;7052;51.050;3.716;2023-07-09T14:18:20;12.65;;;8.38;;
13959;SDS011;7052;51.050;3.716;2023-07-09T14:20:51;11.05;;;8.30;;
13959;SDS011;7052;51.050;3.716;2023-07-09T14:23:19;8.90;;;7.18;;
13959;SDS011;7052;51.050;3.716;2023-07-09T14:25:46;11.55;;;7.32;;
13959;SDS011;7052;51.050;3.716;2023-07-09T14:28:16;9.90;;;7.13;;
13959;SDS011;7052;51.050;3.716;2023-07-09T14:30:45;12.40;;;8.07;;
13959;SDS011;7052;51.050;3.716;2023-07-09T14:33:14;9.20;;;6.88;;
13959;SDS011;7052;51.050;3.716;2023-07-09T14:35:43;11.20;;;7.80;;
13959;SDS011;7052;51.050;3.716;2023-07-09T14:38:15;10.82;;;7.50;;
13959;SDS011;7052;51.050;3.716;2023-07-09T14:40:49;9.18;;;7.35;;
13959;SDS011;7052;51.050;3.716;2023-07-09T14:43:19;10.50;;;7.70;;
13959;SDS011;7052;51.050;3.716;2023-07-09T14:45:48;9.52;;;7.88;;
13959;SDS011;7052;51.050;3.716;2023-07-09T14:48:17;14.82;;;8.27;;
13959;SDS011;7052;51.050;3.716;2023-07-09T14:50:45;13.20;;;7.97;;
13959;SDS011;7052;51.050;3.716;2023-07-09T14:53:15;10.48;;;7.43;;
13959;SDS011;7052;51.050;3.716;2023-07-09T14:55:45;10.75;;;7.60;;
13959;SDS011;7052;51.050;3.716;2023-07-09T14:58:14;8.90;;;7.45;;